sensor_id;sensor_type;location;lat;lon;timestamp;temperature;humidity
5711;DHT22;61291;52.524;13.422;2023-03-01T00:01:05;-1.20;99.90
5711;DHT22;61291;52.524;13.422;2023-03-01T00:03:31;-1.20;99.90
5711;DHT22;61291;52.524;13.422;2023-03-01T00:05:57;-1.20;99.90
5711;DHT22;61291;52.524;13.422;2023-03-01T00:08:22;-1.20;99.90
5711;DHT22;61291;52.524;13.422;2023-03-01T00:10:48;-1.20;99.90
5711;DHT22;61291;52.524;13.422;2023-03-01T00:13:13;-1.20;99.90
5711;DHT22;61291;52.524;13.422;2023-03-01T00:15:40;-1.30;99.90
5711;DHT22;61291;52.524;13.422;2023-03-01T00:18:07;-1.40;99.90
5711;DHT22;61291;52.524;13.422;2023-03-01T00:20:33;-1.40;99.90
5711;DHT22;61291;52.524;13.422;2023-03-01T00:22:59;-1.30;99.90
5711;DHT22;61291;52.524;13.422;2023-03-01T00:25:24;-1.20;99.90
5711;DHT22;61291;52.524;13.422;2023-03-01T00:27:50;-1.10;99.90
5711;DHT22;61291;52.524;13.422;2023-03-01T00:30:15;-1.10;99.90
5711;DHT22;61291;52.524;13.422;2023-03-01T00:32:41;-1.20;99.90
5711;DHT22;61291;52.524;13.422;2023-03-01T00:35:06;-1.30;99.90
5711;DHT22;61291;52.524;13.422;2023-03-01T00:37:32;-1.40;99.90
5711;DHT22;61291;52.524;13.422;2023-03-01T00:39:57;-1.40;99.90
5711;DHT22;61291;52.524;13.422;2023-03-01T00:42:23;-1.40;99.90
5711;DHT22;61291;52.524;13.422;2023-03-01T00:44:49;-1.40;99.90
5711;DHT22;61291;52.524;13.422;2023-03-01T00:47:14;-1.50;99.90
5711;DHT22;61291;52.524;13.422;2023-03-01T00:49:40;-1.50;99.90
5711;DHT22;61291;52.524;13.422;2023-03-01T00:52:05;-1.60;99.90
5711;DHT22;61291;52.524;13.422;2023-03-01T00:54:31;-1.50;99.90
5711;DHT22;61291;52.524;13.422;2023-03-01T00:56:56;-1.30;99.90
5711;DHT22;61291;52.524;13.422;2023-03-01T00:59:22;-1.10;99.90
5711;DHT22;61291;52.524;13.422;2023-03-01T01:01:47;-1.00;99.90
5711;DHT22;61291;52.524;13.422;2023-03-01T01:04:13;-0.90;99.90
5711;DHT22;61291;52.524;13.422;2023-03-01T01:06:44;-0.90;99.90
5711;DHT22;61291;52.524;13.422;2023-03-01T01:09:12;-1.10;99.90
5711;DHT22;61291;52.524;13.422;2023-03-01T01:11:49;-1.20;99.90
5711;DHT22;61291;52.524;13.422;2023-03-01T01:14:15;-1.30;99.90
5711;DHT22;61291;52.524;13.422;2023-03-01T01:16:41;-1.30;99.90
5711;DHT22;61291;52.524;13.422;2023-03-01T01:19:06;-1.20;99.90
5711;DHT22;61291;52.524;13.422;2023-03-01T01:21:32;-1.20;99.90
5711;DHT22;61291;52.524;13.422;2023-03-01T01:23:58;-1.30;99.90
5711;DHT22;61291;52.524;13.422;2023-03-01T01:26:26;-1.30;99.90
5711;DHT22;61291;52.524;13.422;2023-03-01T01:28:52;-1.30;99.90
5711;DHT22;61291;52.524;13.422;2023-03-01T01:31:18;-1.50;99.90
5711;DHT22;61291;52.524;13.422;2023-03-01T01:33:44;-1.50;99.90
5711;DHT22;61291;52.524;13.422;2023-03-01T01:36:11;-1.50;99.90
5711;DHT22;61291;52.524;13.422;2023-03-01T01:38:37;-1.30;99.90
5711;DHT22;61291;52.524;13.422;2023-03-01T01:41:04;-1.20;99.90
5711;DHT22;61291;52.524;13.422;2023-03-01T01:43:36;-1.10;99.90
5711;DHT22;61291;52.524;13.422;2023-03-01T01:46:04;-1.10;99.90
5711;DHT22;61291;52.524;13.422;2023-03-01T01:48:46;-1.20;99.90
5711;DHT22;61291;52.524;13.422;2023-03-01T01:51:17;-1.20;99.90
5711;DHT22;61291;52.524;13.422;2023-03-01T01:53:47;-1.40;99.90
5711;DHT22;61291;52.524;13.422;2023-03-01T01:56:16;-1.50;99.90
5711;DHT22;61291;52.524;13.422;2023-03-01T01:58:43;-1.60;99.90
5711;DHT22;61291;52.524;13.422;2023-03-01T02:01:09;-1.70;99.90
5711;DHT22;61291;52.524;13.422;2023-03-01T02:03:37;-1.70;99.90
5711;DHT22;61291;52.524;13.422;2023-03-01T02:09:02;-1.70;99.90
5711;DHT22;61291;52.524;13.422;2023-03-01T02:11:30;-1.80;99.90
5711;DHT22;61291;52.524;13.422;2023-03-01T02:13:56;-1.80;99.90
5711;DHT22;61291;52.524;13.422;2023-03-01T02:16:21;-1.80;99.90
5711;DHT22;61291;52.524;13.422;2023-03-01T02:18:47;-1.90;99.90
5711;DHT22;61291;52.524;13.422;2023-03-01T02:21:35;-2.00;99.90
5711;DHT22;61291;52.524;13.422;2023-03-01T02:24:26;-2.00;99.90
5711;DHT22;61291;52.524;13.422;2023-03-01T02:26:55;-2.00;99.90
5711;DHT22;61291;52.524;13.422;2023-03-01T02:29:22;-2.00;99.90
5711;DHT22;61291;52.524;13.422;2023-03-01T02:31:49;-1.80;99.90
5711;DHT22;61291;52.524;13.422;2023-03-01T02:34:18;-1.80;99.90
5711;DHT22;61291;52.524;13.422;2023-03-01T02:37:03;-1.90;99.90
5711;DHT22;61291;52.524;13.422;2023-03-01T02:39:42;-2.00;99.90
5711;DHT22;61291;52.524;13.422;2023-03-01T02:42:12;-2.00;99.90
5711;DHT22;61291;52.524;13.422;2023-03-01T02:44:38;-2.10;99.90
5711;DHT22;61291;52.524;13.422;2023-03-01T02:47:04;-2.20;99.90
5711;DHT22;61291;52.524;13.422;2023-03-01T02:49:32;-2.20;99.90
5711;DHT22;61291;52.524;13.422;2023-03-01T02:52:16;-2.30;99.90
5711;DHT22;61291;52.524;13.422;2023-03-01T02:57:28;-2.20;99.90
5711;DHT22;61291;52.524;13.422;2023-03-01T02:59:55;-2.30;99.90
5711;DHT22;61291;52.524;13.422;2023-03-01T03:02:25;-2.40;99.90
5711;DHT22;61291;52.524;13.422;2023-03-01T03:05:13;-2.40;99.90
5711;DHT22;61291;52.524;13.422;2023-03-01T03:07:41;-2.40;99.90
5711;DHT22;61291;52.524;13.422;2023-03-01T03:10:10;-2.40;99.90
5711;DHT22;61291;52.524;13.422;2023-03-01T03:12:36;-2.30;99.90
5711;DHT22;61291;52.524;13.422;2023-03-01T03:15:03;-2.30;99.90
5711;DHT22;61291;52.524;13.422;2023-03-01T03:17:37;-2.30;99.90
5711;DHT22;61291;52.524;13.422;2023-03-01T03:20:04;-2.30;99.90
5711;DHT22;61291;52.524;13.422;2023-03-01T03:22:31;-2.40;99.90
5711;DHT22;61291;52.524;13.422;2023-03-01T03:24:59;-2.60;99.90
5711;DHT22;61291;52.524;13.422;2023-03-01T03:27:24;-2.60;99.90
5711;DHT22;61291;52.524;13.422;2023-03-01T03:29:50;-2.60;99.90
5711;DHT22;61291;52.524;13.422;2023-03-01T03:32:15;-2.70;99.90
5711;DHT22;61291;52.524;13.422;2023-03-01T03:34:41;-2.70;99.90
5711;DHT22;61291;52.524;13.422;2023-03-01T03:37:06;-2.60;99.90
5711;DHT22;61291;52.524;13.422;2023-03-01T03:39:52;-2.60;99.90
5711;DHT22;61291;52.524;13.422;2023-03-01T03:42:20;-2.60;99.90
5711;DHT22;61291;52.524;13.422;2023-03-01T03:44:47;-2.70;99.90
5711;DHT22;61291;52.524;13.422;2023-03-01T03:47:12;-2.70;99.90
5711;DHT22;61291;52.524;13.422;2023-03-01T03:49:39;-2.60;99.90
5711;DHT22;61291;52.524;13.422;2023-03-01T03:52:05;-2.60;99.90
5711;DHT22;61291;52.524;13.422;2023-03-01T03:54:41;-2.70;99.90
5711;DHT22;61291;52.524;13.422;2023-03-01T03:57:07;-2.70;99.90
5711;DHT22;61291;52.524;13.422;2023-03-01T03:59:32;-2.70;99.90
5711;DHT22;61291;52.524;13.422;2023-03-01T04:01:58;-2.70;99.90
5711;DHT22;61291;52.524;13.422;2023-03-01T04:04:24;-2.60;99.90
5711;DHT22;61291;52.524;13.422;2023-03-01T04:06:49;-2.70;99.90
5711;DHT22;61291;52.524;13.422;2023-03-01T04:09:15;-2.70;99.90
5711;DHT22;61291;52.524;13.422;2023-03-01T04:11:40;-2.70;99.90
5711;DHT22;61291;52.524;13.422;2023-03-01T04:14:06;-2.80;99.90
5711;DHT22;61291;52.524;13.422;2023-03-01T04:16:31;-2.80;99.90
5711;DHT22;61291;52.524;13.422;2023-03-01T04:18:57;-2.80;99.90
5711;DHT22;61291;52.524;13.422;2023-03-01T04:21:24;-2.90;99.90
5711;DHT22;61291;52.524;13.422;2023-03-01T04:23:50;-2.80;99.90
5711;DHT22;61291;52.524;13.422;2023-03-01T04:26:18;-2.80;99.90
5711;DHT22;61291;52.524;13.422;2023-03-01T04:28:44;-2.80;99.90
5711;DHT22;61291;52.524;13.422;2023-03-01T04:31:15;-2.90;99.90
5711;DHT22;61291;52.524;13.422;2023-03-01T04:33:50;-2.80;99.90
5711;DHT22;61291;52.524;13.422;2023-03-01T04:36:21;-2.90;99.90
5711;DHT22;61291;52.524;13.422;2023-03-01T04:38:48;-2.80;99.90
5711;DHT22;61291;52.524;13.422;2023-03-01T04:41:15;-2.90;99.90
5711;DHT22;61291;52.524;13.422;2023-03-01T04:43:41;-2.90;99.90
5711;DHT22;61291;52.524;13.422;2023-03-01T04:46:10;-2.90;99.90
5711;DHT22;61291;52.524;13.422;2023-03-01T04:48:37;-2.90;99.90
5711;DHT22;61291;52.524;13.422;2023-03-01T04:51:04;-2.90;99.90
5711;DHT22;61291;52.524;13.422;2023-03-01T04:53:31;-2.90;99.90
5711;DHT22;61291;52.524;13.422;2023-03-01T04:55:57;-2.90;99.90
5711;DHT22;61291;52.524;13.422;2023-03-01T04:58:24;-2.90;99.90
5711;DHT22;61291;52.524;13.422;2023-03-01T05:00:50;-2.90;99.90
5711;DHT22;61291;52.524;13.422;2023-03-01T05:03:16;-2.90;99.90
5711;DHT22;61291;52.524;13.422;2023-03-01T05:05:46;-2.90;99.90
5711;DHT22;61291;52.524;13.422;2023-03-01T05:08:12;-2.90;99.90
5711;DHT22;61291;52.524;13.422;2023-03-01T05:10:52;-2.90;99.90
5711;DHT22;61291;52.524;13.422;2023-03-01T05:13:19;-2.80;99.90
5711;DHT22;61291;52.524;13.422;2023-03-01T05:15:56;-2.90;99.90
5711;DHT22;61291;52.524;13.422;2023-03-01T05:18:25;-2.90;99.90
5711;DHT22;61291;52.524;13.422;2023-03-01T05:20:55;-2.90;99.90
5711;DHT22;61291;52.524;13.422;2023-03-01T05:23:24;-2.90;99.90
5711;DHT22;61291;52.524;13.422;2023-03-01T05:25:49;-2.90;99.90
5711;DHT22;61291;52.524;13.422;2023-03-01T05:28:18;-2.80;99.90
5711;DHT22;61291;52.524;13.422;2023-03-01T05:30:45;-2.80;99.90
5711;DHT22;61291;52.524;13.422;2023-03-01T05:33:11;-2.80;99.90
5711;DHT22;61291;52.524;13.422;2023-03-01T05:35:41;-2.80;99.90
5711;DHT22;61291;52.524;13.422;2023-03-01T05:38:07;-2.90;99.90
5711;DHT22;61291;52.524;13.422;2023-03-01T05:40:34;-2.90;99.90
5711;DHT22;61291;52.524;13.422;2023-03-01T05:42:59;-2.90;99.90
5711;DHT22;61291;52.524;13.422;2023-03-01T05:45:26;-2.80;99.90
5711;DHT22;61291;52.524;13.422;2023-03-01T05:47:52;-2.70;99.90
5711;DHT22;61291;52.524;13.422;2023-03-01T05:50:22;-2.70;99.90
5711;DHT22;61291;52.524;13.422;2023-03-01T05:52:50;-2.70;99.90
5711;DHT22;61291;52.524;13.422;2023-03-01T05:55:18;-2.60;99.90
5711;DHT22;61291;52.524;13.422;2023-03-01T05:57:44;-2.60;99.90
5711;DHT22;61291;52.524;13.422;2023-03-01T06:00:11;-2.60;99.90
5711;DHT22;61291;52.524;13.422;2023-03-01T06:02:37;-2.50;99.90
5711;DHT22;61291;52.524;13.422;2023-03-01T06:05:04;-2.50;99.90
5711;DHT22;61291;52.524;13.422;2023-03-01T06:07:30;-2.50;99.90
5711;DHT22;61291;52.524;13.422;2023-03-01T06:09:56;-2.50;99.90
5711;DHT22;61291;52.524;13.422;2023-03-01T06:12:21;-2.50;99.90
5711;DHT22;61291;52.524;13.422;2023-03-01T06:14:47;-2.40;99.90
5711;DHT22;61291;52.524;13.422;2023-03-01T06:17:13;-2.20;99.90
5711;DHT22;61291;52.524;13.422;2023-03-01T06:19:38;-1.90;99.90
5711;DHT22;61291;52.524;13.422;2023-03-01T06:22:04;-1.70;99.90
5711;DHT22;61291;52.524;13.422;2023-03-01T06:24:29;-1.50;99.90
5711;DHT22;61291;52.524;13.422;2023-03-01T06:26:55;-1.40;99.90
5711;DHT22;61291;52.524;13.422;2023-03-01T06:29:21;-1.30;99.90
5711;DHT22;61291;52.524;13.422;2023-03-01T06:31:48;-1.20;99.90
5711;DHT22;61291;52.524;13.422;2023-03-01T06:34:14;-1.10;99.90
5711;DHT22;61291;52.524;13.422;2023-03-01T06:36:39;-1.00;99.90
5711;DHT22;61291;52.524;13.422;2023-03-01T06:39:05;-0.90;99.90
5711;DHT22;61291;52.524;13.422;2023-03-01T06:41:31;-0.80;99.90
5711;DHT22;61291;52.524;13.422;2023-03-01T06:43:57;-0.60;99.90
5711;DHT22;61291;52.524;13.422;2023-03-01T06:46:24;-0.50;99.90
5711;DHT22;61291;52.524;13.422;2023-03-01T06:48:49;-0.40;99.90
5711;DHT22;61291;52.524;13.422;2023-03-01T06:51:14;-0.30;99.90
5711;DHT22;61291;52.524;13.422;2023-03-01T06:53:40;0.10;99.90
5711;DHT22;61291;52.524;13.422;2023-03-01T06:56:06;0.40;99.90
5711;DHT22;61291;52.524;13.422;2023-03-01T06:58:31;0.50;99.90
5711;DHT22;61291;52.524;13.422;2023-03-01T07:00:57;0.60;99.90
5711;DHT22;61291;52.524;13.422;2023-03-01T07:03:22;0.60;99.90
5711;DHT22;61291;52.524;13.422;2023-03-01T07:05:51;0.70;99.90
5711;DHT22;61291;52.524;13.422;2023-03-01T07:08:18;0.70;99.90
5711;DHT22;61291;52.524;13.422;2023-03-01T07:10:44;0.70;99.90
5711;DHT22;61291;52.524;13.422;2023-03-01T07:13:09;0.80;99.90
5711;DHT22;61291;52.524;13.422;2023-03-01T07:15:35;0.80;99.90
5711;DHT22;61291;52.524;13.422;2023-03-01T07:18:00;0.80;99.90
5711;DHT22;61291;52.524;13.422;2023-03-01T07:20:26;0.80;99.90
5711;DHT22;61291;52.524;13.422;2023-03-01T07:22:53;0.80;99.90
5711;DHT22;61291;52.524;13.422;2023-03-01T07:25:18;0.90;99.90
5711;DHT22;61291;52.524;13.422;2023-03-01T07:27:44;0.90;99.90
5711;DHT22;61291;52.524;13.422;2023-03-01T07:30:13;0.90;99.90
5711;DHT22;61291;52.524;13.422;2023-03-01T07:32:39;1.10;99.90
5711;DHT22;61291;52.524;13.422;2023-03-01T07:35:05;1.10;99.90
5711;DHT22;61291;52.524;13.422;2023-03-01T07:37:30;1.20;99.90
5711;DHT22;61291;52.524;13.422;2023-03-01T07:39:56;1.30;99.90
5711;DHT22;61291;52.524;13.422;2023-03-01T07:42:21;1.40;99.90
5711;DHT22;61291;52.524;13.422;2023-03-01T07:44:46;1.50;99.90
5711;DHT22;61291;52.524;13.422;2023-03-01T07:47:12;1.60;99.90
5711;DHT22;61291;52.524;13.422;2023-03-01T07:49:37;1.60;99.90
5711;DHT22;61291;52.524;13.422;2023-03-01T07:52:03;1.70;99.90
5711;DHT22;61291;52.524;13.422;2023-03-01T07:54:29;1.70;99.90
5711;DHT22;61291;52.524;13.422;2023-03-01T07:56:55;1.80;99.90
5711;DHT22;61291;52.524;13.422;2023-03-01T07:59:21;1.90;99.90
5711;DHT22;61291;52.524;13.422;2023-03-01T08:01:48;2.00;99.90
5711;DHT22;61291;52.524;13.422;2023-03-01T08:04:14;2.10;99.90
5711;DHT22;61291;52.524;13.422;2023-03-01T08:06:39;2.30;99.90
5711;DHT22;61291;52.524;13.422;2023-03-01T08:09:05;2.40;99.90
5711;DHT22;61291;52.524;13.422;2023-03-01T08:11:30;2.70;99.90
5711;DHT22;61291;52.524;13.422;2023-03-01T08:13:56;2.90;99.90
5711;DHT22;61291;52.524;13.422;2023-03-01T08:16:22;2.90;99.90
5711;DHT22;61291;52.524;13.422;2023-03-01T08:18:48;3.10;99.90
5711;DHT22;61291;52.524;13.422;2023-03-01T08:21:16;3.20;99.90
5711;DHT22;61291;52.524;13.422;2023-03-01T08:23:42;3.40;99.90
5711;DHT22;61291;52.524;13.422;2023-03-01T08:26:16;3.50;99.90
5711;DHT22;61291;52.524;13.422;2023-03-01T08:28:42;3.60;99.90
5711;DHT22;61291;52.524;13.422;2023-03-01T08:31:16;3.70;99.90
5711;DHT22;61291;52.524;13.422;2023-03-01T08:33:42;3.80;99.90
5711;DHT22;61291;52.524;13.422;2023-03-01T08:36:07;3.90;99.90
5711;DHT22;61291;52.524;13.422;2023-03-01T08:38:34;4.10;99.90
5711;DHT22;61291;52.524;13.422;2023-03-01T08:41:01;4.20;99.90
5711;DHT22;61291;52.524;13.422;2023-03-01T08:43:26;4.30;99.90
5711;DHT22;61291;52.524;13.422;2023-03-01T08:45:52;4.40;99.90
5711;DHT22;61291;52.524;13.422;2023-03-01T08:48:18;4.50;99.90
5711;DHT22;61291;52.524;13.422;2023-03-01T08:50:44;4.50;99.90
5711;DHT22;61291;52.524;13.422;2023-03-01T08:53:09;4.60;99.90
5711;DHT22;61291;52.524;13.422;2023-03-01T08:55:35;4.60;99.90
5711;DHT22;61291;52.524;13.422;2023-03-01T08:58:00;4.70;99.90
5711;DHT22;61291;52.524;13.422;2023-03-01T09:00:26;4.80;99.90
5711;DHT22;61291;52.524;13.422;2023-03-01T09:02:51;4.80;99.90
5711;DHT22;61291;52.524;13.422;2023-03-01T09:05:17;4.80;99.90
5711;DHT22;61291;52.524;13.422;2023-03-01T09:07:42;4.80;99.90
5711;DHT22;61291;52.524;13.422;2023-03-01T09:10:08;4.90;99.90
5711;DHT22;61291;52.524;13.422;2023-03-01T09:12:34;4.90;99.90
5711;DHT22;61291;52.524;13.422;2023-03-01T09:14:59;4.90;99.90
5711;DHT22;61291;52.524;13.422;2023-03-01T09:17:25;5.00;99.30
5711;DHT22;61291;52.524;13.422;2023-03-01T09:19:50;5.10;99.80
5711;DHT22;61291;52.524;13.422;2023-03-01T09:22:16;5.10;99.80
5711;DHT22;61291;52.524;13.422;2023-03-01T09:24:41;5.20;99.60
5711;DHT22;61291;52.524;13.422;2023-03-01T09:27:07;5.20;98.60
5711;DHT22;61291;52.524;13.422;2023-03-01T09:29:37;5.30;98.70
5711;DHT22;61291;52.524;13.422;2023-03-01T09:32:02;5.30;99.00
5711;DHT22;61291;52.524;13.422;2023-03-01T09:34:28;5.40;99.10
5711;DHT22;61291;52.524;13.422;2023-03-01T09:36:53;5.50;97.90
5711;DHT22;61291;52.524;13.422;2023-03-01T09:39:19;5.60;97.80
5711;DHT22;61291;52.524;13.422;2023-03-01T09:44:36;5.80;98.10
5711;DHT22;61291;52.524;13.422;2023-03-01T09:47:04;5.90;97.20
5711;DHT22;61291;52.524;13.422;2023-03-01T09:49:33;6.00;97.30
5711;DHT22;61291;52.524;13.422;2023-03-01T09:52:21;6.10;97.50
5711;DHT22;61291;52.524;13.422;2023-03-01T09:54:49;6.20;96.40
5711;DHT22;61291;52.524;13.422;2023-03-01T09:57:30;6.40;97.00
5711;DHT22;61291;52.524;13.422;2023-03-01T10:00:20;6.50;96.40
5711;DHT22;61291;52.524;13.422;2023-03-01T10:05:59;6.70;96.50
5711;DHT22;61291;52.524;13.422;2023-03-01T10:08:39;6.90;96.40
5711;DHT22;61291;52.524;13.422;2023-03-01T10:11:19;6.80;95.20
5711;DHT22;61291;52.524;13.422;2023-03-01T10:14:07;6.80;94.60
5711;DHT22;61291;52.524;13.422;2023-03-01T10:16:44;6.90;95.20
5711;DHT22;61291;52.524;13.422;2023-03-01T10:19:24;6.60;94.40
5711;DHT22;61291;52.524;13.422;2023-03-01T10:21:53;6.70;94.70
5711;DHT22;61291;52.524;13.422;2023-03-01T10:24:19;6.80;94.90
5711;DHT22;61291;52.524;13.422;2023-03-01T10:27:04;6.80;94.90
5711;DHT22;61291;52.524;13.422;2023-03-01T10:29:37;6.50;93.10
5711;DHT22;61291;52.524;13.422;2023-03-01T10:32:04;6.80;94.00
5711;DHT22;61291;52.524;13.422;2023-03-01T10:34:33;6.80;94.40
5711;DHT22;61291;52.524;13.422;2023-03-01T10:37:13;6.80;94.50
5711;DHT22;61291;52.524;13.422;2023-03-01T10:40:02;6.80;94.00
5711;DHT22;61291;52.524;13.422;2023-03-01T10:42:39;6.80;93.40
5711;DHT22;61291;52.524;13.422;2023-03-01T10:45:38;6.90;94.00
5711;DHT22;61291;52.524;13.422;2023-03-01T10:50:43;7.00;93.20
5711;DHT22;61291;52.524;13.422;2023-03-01T10:53:32;7.00;93.70
5711;DHT22;61291;52.524;13.422;2023-03-01T10:56:04;7.10;93.60
5711;DHT22;61291;52.524;13.422;2023-03-01T10:58:31;7.20;93.70
5711;DHT22;61291;52.524;13.422;2023-03-01T11:01:04;7.30;93.60
5711;DHT22;61291;52.524;13.422;2023-03-01T11:03:37;7.30;93.80
5711;DHT22;61291;52.524;13.422;2023-03-01T11:08:39;7.50;93.10
5711;DHT22;61291;52.524;13.422;2023-03-01T11:11:17;7.50;92.90
5711;DHT22;61291;52.524;13.422;2023-03-01T11:16:41;7.70;91.40
5711;DHT22;61291;52.524;13.422;2023-03-01T11:19:16;7.70;91.70
5711;DHT22;61291;52.524;13.422;2023-03-01T11:22:03;7.80;91.50
5711;DHT22;61291;52.524;13.422;2023-03-01T11:27:28;7.80;90.90
5711;DHT22;61291;52.524;13.422;2023-03-01T11:35:55;8.00;89.60
5711;DHT22;61291;52.524;13.422;2023-03-01T11:38:24;8.10;90.20
5711;DHT22;61291;52.524;13.422;2023-03-01T11:40:57;8.10;89.50
5711;DHT22;61291;52.524;13.422;2023-03-01T11:54:23;8.00;87.40
5711;DHT22;61291;52.524;13.422;2023-03-01T11:57:05;8.00;86.50
5711;DHT22;61291;52.524;13.422;2023-03-01T11:59:59;7.80;84.20
5711;DHT22;61291;52.524;13.422;2023-03-01T12:11:43;8.10;84.80
5711;DHT22;61291;52.524;13.422;2023-03-01T12:17:32;8.20;82.30
5711;DHT22;61291;52.524;13.422;2023-03-01T12:20:34;8.30;84.50
5711;DHT22;61291;52.524;13.422;2023-03-01T12:23:26;8.30;84.00
5711;DHT22;61291;52.524;13.422;2023-03-01T12:26:18;8.30;82.10
5711;DHT22;61291;52.524;13.422;2023-03-01T12:29:42;8.30;81.00
5711;DHT22;61291;52.524;13.422;2023-03-01T12:51:28;8.30;79.90
5711;DHT22;61291;52.524;13.422;2023-03-01T12:53:55;8.30;80.60
5711;DHT22;61291;52.524;13.422;2023-03-01T12:56:28;8.30;79.80
5711;DHT22;61291;52.524;13.422;2023-03-01T13:04:52;8.40;78.40
5711;DHT22;61291;52.524;13.422;2023-03-01T13:07:36;8.40;76.60
5711;DHT22;61291;52.524;13.422;2023-03-01T13:10:24;8.50;78.10
5711;DHT22;61291;52.524;13.422;2023-03-01T13:13:01;8.40;76.70
5711;DHT22;61291;52.524;13.422;2023-03-01T13:15:31;8.40;76.70
5711;DHT22;61291;52.524;13.422;2023-03-01T13:17:57;8.50;77.50
5711;DHT22;61291;52.524;13.422;2023-03-01T13:26:03;8.50;74.70
5711;DHT22;61291;52.524;13.422;2023-03-01T13:28:37;8.60;75.60
5711;DHT22;61291;52.524;13.422;2023-03-01T13:31:05;8.60;76.10
5711;DHT22;61291;52.524;13.422;2023-03-01T13:35:58;8.40;76.10
5711;DHT22;61291;52.524;13.422;2023-03-01T13:38:44;8.40;76.40
5711;DHT22;61291;52.524;13.422;2023-03-01T13:41:11;8.40;76.50
5711;DHT22;61291;52.524;13.422;2023-03-01T13:43:40;8.30;76.80
5711;DHT22;61291;52.524;13.422;2023-03-01T13:46:16;8.30;76.60
5711;DHT22;61291;52.524;13.422;2023-03-01T13:48:45;8.30;77.10
5711;DHT22;61291;52.524;13.422;2023-03-01T13:51:11;8.30;77.10
5711;DHT22;61291;52.524;13.422;2023-03-01T13:53:44;8.30;77.30
5711;DHT22;61291;52.524;13.422;2023-03-01T13:56:20;8.30;77.30
5711;DHT22;61291;52.524;13.422;2023-03-01T13:59:02;8.40;77.60
5711;DHT22;61291;52.524;13.422;2023-03-01T14:01:34;8.40;75.00
5711;DHT22;61291;52.524;13.422;2023-03-01T14:04:01;8.50;75.50
5711;DHT22;61291;52.524;13.422;2023-03-01T14:06:32;8.50;75.40
5711;DHT22;61291;52.524;13.422;2023-03-01T14:09:14;8.50;74.00
5711;DHT22;61291;52.524;13.422;2023-03-01T14:15:01;8.60;74.00
5711;DHT22;61291;52.524;13.422;2023-03-01T14:20:02;8.70;75.90
5711;DHT22;61291;52.524;13.422;2023-03-01T14:22:32;8.80;76.50
5711;DHT22;61291;52.524;13.422;2023-03-01T14:25:34;8.70;77.30
5711;DHT22;61291;52.524;13.422;2023-03-01T14:27:57;8.70;77.70
5711;DHT22;61291;52.524;13.422;2023-03-01T14:30:24;8.70;78.30
5711;DHT22;61291;52.524;13.422;2023-03-01T14:33:02;8.70;78.80
5711;DHT22;61291;52.524;13.422;2023-03-01T14:35:30;8.70;79.30
5711;DHT22;61291;52.524;13.422;2023-03-01T14:37:56;8.70;79.40
5711;DHT22;61291;52.524;13.422;2023-03-01T14:40:28;8.70;79.70
5711;DHT22;61291;52.524;13.422;2023-03-01T14:42:57;8.60;80.40
5711;DHT22;61291;52.524;13.422;2023-03-01T14:45:26;8.70;80.80
5711;DHT22;61291;52.524;13.422;2023-03-01T14:47:52;8.60;80.80
5711;DHT22;61291;52.524;13.422;2023-03-01T14:50:27;8.70;81.40
5711;DHT22;61291;52.524;13.422;2023-03-01T14:52:56;8.60;82.60
5711;DHT22;61291;52.524;13.422;2023-03-01T14:55:27;8.70;82.90
5711;DHT22;61291;52.524;13.422;2023-03-01T14:57:54;8.70;83.30
5711;DHT22;61291;52.524;13.422;2023-03-01T15:00:27;8.60;83.50
5711;DHT22;61291;52.524;13.422;2023-03-01T15:02:55;8.60;83.40
5711;DHT22;61291;52.524;13.422;2023-03-01T15:05:27;8.60;83.50
5711;DHT22;61291;52.524;13.422;2023-03-01T15:07:55;8.60;84.00
5711;DHT22;61291;52.524;13.422;2023-03-01T15:10:24;8.50;83.90
5711;DHT22;61291;52.524;13.422;2023-03-01T15:12:50;8.50;83.80
5711;DHT22;61291;52.524;13.422;2023-03-01T15:15:32;8.50;83.80
5711;DHT22;61291;52.524;13.422;2023-03-01T15:18:05;8.40;84.60
5711;DHT22;61291;52.524;13.422;2023-03-01T15:20:32;8.40;84.20
5711;DHT22;61291;52.524;13.422;2023-03-01T15:23:01;8.40;84.40
5711;DHT22;61291;52.524;13.422;2023-03-01T15:25:28;8.30;84.00
5711;DHT22;61291;52.524;13.422;2023-03-01T15:27:56;8.30;83.90
5711;DHT22;61291;52.524;13.422;2023-03-01T15:30:31;8.40;83.90
5711;DHT22;61291;52.524;13.422;2023-03-01T15:35:56;8.20;84.10
5711;DHT22;61291;52.524;13.422;2023-03-01T15:41:27;8.20;84.20
5711;DHT22;61291;52.524;13.422;2023-03-01T15:43:57;8.10;84.00
5711;DHT22;61291;52.524;13.422;2023-03-01T15:46:29;8.10;84.20
5711;DHT22;61291;52.524;13.422;2023-03-01T15:48:59;8.00;84.40
5711;DHT22;61291;52.524;13.422;2023-03-01T15:51:31;7.90;84.50
5711;DHT22;61291;52.524;13.422;2023-03-01T15:53:59;7.80;84.50
5711;DHT22;61291;52.524;13.422;2023-03-01T15:56:25;7.70;84.70
5711;DHT22;61291;52.524;13.422;2023-03-01T15:58:50;7.70;84.90
5711;DHT22;61291;52.524;13.422;2023-03-01T16:01:17;7.60;84.90
5711;DHT22;61291;52.524;13.422;2023-03-01T16:03:43;7.60;85.20
5711;DHT22;61291;52.524;13.422;2023-03-01T16:06:09;7.60;85.40
5711;DHT22;61291;52.524;13.422;2023-03-01T16:08:36;7.50;85.50
5711;DHT22;61291;52.524;13.422;2023-03-01T16:11:04;7.40;85.80
5711;DHT22;61291;52.524;13.422;2023-03-01T16:13:31;7.20;86.10
5711;DHT22;61291;52.524;13.422;2023-03-01T16:15:57;7.20;86.40
5711;DHT22;61291;52.524;13.422;2023-03-01T16:18:23;7.20;86.50
5711;DHT22;61291;52.524;13.422;2023-03-01T16:20:49;7.10;87.20
5711;DHT22;61291;52.524;13.422;2023-03-01T16:23:15;7.10;87.10
5711;DHT22;61291;52.524;13.422;2023-03-01T16:25:40;7.10;87.10
5711;DHT22;61291;52.524;13.422;2023-03-01T16:28:06;6.90;87.00
5711;DHT22;61291;52.524;13.422;2023-03-01T16:30:39;6.90;87.70
5711;DHT22;61291;52.524;13.422;2023-03-01T16:33:05;6.80;87.70
5711;DHT22;61291;52.524;13.422;2023-03-01T16:35:33;6.80;87.70
5711;DHT22;61291;52.524;13.422;2023-03-01T16:37:59;6.60;87.60
5711;DHT22;61291;52.524;13.422;2023-03-01T16:40:27;6.50;88.00
5711;DHT22;61291;52.524;13.422;2023-03-01T16:42:55;6.50;88.20
5711;DHT22;61291;52.524;13.422;2023-03-01T16:45:24;6.50;88.50
5711;DHT22;61291;52.524;13.422;2023-03-01T16:47:50;6.30;88.20
5711;DHT22;61291;52.524;13.422;2023-03-01T16:50:15;6.10;88.40
5711;DHT22;61291;52.524;13.422;2023-03-01T16:52:40;6.10;88.90
5711;DHT22;61291;52.524;13.422;2023-03-01T16:55:07;6.00;88.80
5711;DHT22;61291;52.524;13.422;2023-03-01T16:57:35;5.80;89.00
5711;DHT22;61291;52.524;13.422;2023-03-01T17:00:00;5.80;89.60
5711;DHT22;61291;52.524;13.422;2023-03-01T17:02:36;5.90;90.20
5711;DHT22;61291;52.524;13.422;2023-03-01T17:05:03;5.90;90.00
5711;DHT22;61291;52.524;13.422;2023-03-01T17:07:29;5.80;90.10
5711;DHT22;61291;52.524;13.422;2023-03-01T17:09:59;5.70;90.20
5711;DHT22;61291;52.524;13.422;2023-03-01T17:12:24;5.60;90.30
5711;DHT22;61291;52.524;13.422;2023-03-01T17:14:50;5.50;90.30
5711;DHT22;61291;52.524;13.422;2023-03-01T17:17:15;5.30;90.40
5711;DHT22;61291;52.524;13.422;2023-03-01T17:19:42;5.20;90.60
5711;DHT22;61291;52.524;13.422;2023-03-01T17:22:09;5.10;90.70
5711;DHT22;61291;52.524;13.422;2023-03-01T17:24:37;5.10;91.00
5711;DHT22;61291;52.524;13.422;2023-03-01T17:27:03;5.20;91.10
5711;DHT22;61291;52.524;13.422;2023-03-01T17:29:29;5.20;91.20